Huvudsida
METAR-TAF:

METAR-TAF

Flygplatser :

Aten-Elefthérios Venizélos internationella flygplats

Aten, Grekland

latitud: 37-56N, longitud: 023-56E, höjd: 94 m

Aktuellt väderrapport

Denna rapport gjordes för 39 minuter sedan, klockan 16:20 UTC
Vind 3 kt varierande vindriktning
Temperatur 15°C
Fuktighet 39%
Tryck 1011 hPa
Sikt 10 km eller mer
Inga moln under 1 500 m eller inga cumulonimbus

METAR: LGAV 251620Z VRB03KT CAVOK 15/01 Q1011 NOSIG

Tid: 18:59 (16:59 UTC)

Väderprognos

Denna rapport gjordes för 5 timmar och 59 minuter sedan, klockan 11:00 UTC
Prognos gäller från 25 kl. 12 UTC till 26 kl. 12 UTC
Vind 14 kt från nordost
Sikt 10 km eller mer
Få moln på en höjd av 3000 ft
Blir
från 25 kl. 16 UTC till 25 kl. 18 UTC
Vind 5 kt varierande vindriktning

TAF: LGAV 251100Z 2512/2612 04014KT 9999 FEW030 BECMG 2516/2518 VRB05KT

Aktuella väderrapporter och prognoser från 4000 flygplatser (METAR- och TAF-rapporter).

De tillgängliga stationerna syns som gula och röda prickar på kartan.

För musen över prickarna för att se namnen på stationerna.

Klicka sedan för att få väderrapporter och prognoser.

För att ändra kartan: Klicka på de gröna knapparna med ett svart kors på för att zooma in; den gröna knappen med ett streck på för att zooma ut; eller på de gröna pilarna för angränsande kartor.


METAR-TAF: